Terminal Aerodrome Forecast
Issued by NWS

Home | Current Version | Previous Version | Text Only | Print | Product List | Glossary On
Versions: 1 2 3 4 5 6 7 8 9 10 11
132
FTUS45 KREV 280533
TAFMMH
TAF
KMMH 280533Z 2806/2906 29012G20KT P6SM SCT050
     FM281800 34015G25KT P6SM SKC
     FM290000 01011KT P6SM SKC=

USA.gov is the U.S. government's official web portal to all federal, state and local government web resources and services.